Time,TemperatureF,DewpointF,PressureIn,WindDirection,WindDirectionDegrees,WindSpeedMPH,WindSpeedGustMPH,Humidity,HourlyPrecipIn,Conditions,Clouds,dailyrainin,SoftwareType,DateUTC
2013-01-01 00:04:00,65.2,65.2,29.93,South,191,8.5,10.4,100,0.00,RA,,0.00,WeatherDisplay:10.37,2013-01-01 06:04:00,
2013-01-01 00:09:00,65.4,65.4,29.94,SSE,161,7.9,11.5,100,0.00,RA,,0.00,WeatherDisplay:10.37,2013-01-01 06:09:00,
2013-01-01 00:14:00,65.6,65.6,29.94,SE,143,7.7,11.5,100,0.00,RA,,0.00,WeatherDisplay:10.37,2013-01-01 06:14:00,
2013-01-01 00:19:00,65.4,65.4,29.94,SE,138,5.8,8.1,100,0.00,RA,,0.00,WeatherDisplay:10.37,2013-01-01 06:19:00,
2013-01-01 00:24:00,65.4,65.4,29.94,SSE,165,6.7,9.2,100,0.00,CLR,,0.00,WeatherDisplay:10.37,2013-01-01 06:24:00,
2013-01-01 00:29:00,65.4,65.4,29.95,South,171,6.3,9.2,100,0.00,CLR,,0.00,WeatherDisplay:10.37,2013-01-01 06:29:00,
2013-01-01 00:34:00,65.5,65.5,29.94,SSE,160,5.3,6.9,100,0.00,CLR,,0.00,WeatherDisplay:10.37,2013-01-01 06:34:00,
2013-01-01 00:39:00,65.5,65.5,29.94,SSE,164,5.7,7.6,100,0.00,CLR,,0.00,WeatherDisplay:10.37,2013-01-01 06:39:00,
2013-01-01 00:44:00,65.4,65.4,29.95,South,176,6.0,9.2,100,0.00,CLR,,0.00,WeatherDisplay:10.37,2013-01-01 06:44:00,
2013-01-01 00:49:00,65.7,65.7,29.95,SW,222,5.7,6.9,100,0.00,CLR,,0.00,WeatherDisplay:10.37,2013-01-01 06:49:00,
2013-01-01 00:54:00,66.0,66.0,29.95,SW,220,4.0,5.8,100,0.00,CLR,,0.00,WeatherDisplay:10.37,2013-01-01 06:54:00,
2013-01-01 00:59:00,65.9,65.9,29.95,South,175,3.6,5.8,100,0.00,CLR,,0.00,WeatherDisplay:10.37,2013-01-01 06:59:00,
2013-01-01 01:04:00,65.9,65.9,29.94,South,175,4.0,5.8,100,0.00,CLR,,0.00,WeatherDisplay:10.37,2013-01-01 07:04:00,
2013-01-01 01:09:00,65.8,65.8,29.93,South,176,4.7,6.9,100,0.00,CLR,,0.00,WeatherDisplay:10.37,2013-01-01 07:09:00,
2013-01-01 01:14:00,65.8,65.8,29.94,SSW,193,4.7,6.9,100,0.00,CLR,,0.00,WeatherDisplay:10.37,2013-01-01 07:14:00,
2013-01-01 01:19:00,65.8,65.8,29.94,SSW,202,4.3,5.8,100,0.00,CLR,,0.00,WeatherDisplay:10.37,2013-01-01 07:19:00,
2013-01-01 01:24:00,65.9,65.9,29.94,SSW,206,4.3,6.9,100,0.00,CLR,,0.00,WeatherDisplay:10.37,2013-01-01 07:24:00,
2013-01-01 01:29:00,65.7,65.7,29.94,SSW,209,4.0,5.8,100,0.00,CLR,,0.00,WeatherDisplay:10.37,2013-01-01 07:29:00,
2013-01-01 01:34:00,65.5,65.5,29.95,SSW,213,3.9,5.8,100,0.00,CLR,,0.00,WeatherDisplay:10.37,2013-01-01 07:34:00,
2013-01-01 01:39:00,65.7,65.7,29.95,SW,215,3.8,5.8,100,0.00,CLR,,0.00,WeatherDisplay:10.37,2013-01-01 07:39:00,
2013-01-01 01:44:00,65.5,65.5,29.95,SW,217,4.1,5.8,100,0.00,CLR,,0.00,WeatherDisplay:10.37,2013-01-01 07:44:00,
2013-01-01 01:49:00,65.6,65.6,29.94,SSW,208,2.8,4.6,100,0.00,CLR,,0.00,WeatherDisplay:10.37,2013-01-01 07:49:00,
2013-01-01 01:54:00,65.6,65.6,29.94,SW,230,2.9,3.5,100,0.00,CLR,,0.00,WeatherDisplay:10.37,2013-01-01 07:54:00,
2013-01-01 01:59:00,65.6,65.6,29.93,West,271,2.1,2.3,100,0.00,CLR,,0.00,WeatherDisplay:10.37,2013-01-01 07:59:00,
2013-01-01 02:04:00,65.8,65.8,29.94,South,178,2.8,3.7,100,0.00,CLR,,0.00,WeatherDisplay:10.37,2013-01-01 08:04:00,
2013-01-01 02:09:00,66.1,66.1,29.94,South,186,2.1,4.6,100,0.00,CLR,,0.00,WeatherDisplay:10.37,2013-01-01 08:09:00,
2013-01-01 02:14:00,66.3,66.3,29.94,SW,226,3.4,4.6,100,0.00,CLR,,0.00,WeatherDisplay:10.37,2013-01-01 08:14:00,
2013-01-01 02:19:00,66.3,66.3,29.94,SSW,193,3.1,4.6,100,0.00,CLR,,0.00,WeatherDisplay:10.37,2013-01-01 08:19:00,
2013-01-01 02:24:00,66.5,66.5,29.94,SW,229,3.8,4.6,100,0.00,CLR,,0.00,WeatherDisplay:10.37,2013-01-01 08:24:00,
2013-01-01 02:29:00,66.4,66.4,29.94,SSW,209,3.3,4.6,100,0.00,CLR,,0.00,WeatherDisplay:10.37,2013-01-01 08:29:00,
2013-01-01 02:34:00,66.2,66.2,29.93,SSW,198,3.4,5.8,100,0.00,CLR,,0.00,WeatherDisplay:10.37,2013-01-01 08:34:00,
2013-01-01 02:39:00,66.1,66.1,29.94,SSW,209,3.6,4.6,100,0.00,CLR,,0.00,WeatherDisplay:10.37,2013-01-01 08:39:00,
2013-01-01 02:44:00,65.9,65.9,29.93,SSW,210,4.1,4.6,100,0.00,CLR,,0.00,WeatherDisplay:10.37,2013-01-01 08:44:00,
2013-01-01 02:49:00,66.0,66.0,29.93,SSW,192,5.7,6.9,100,0.00,CLR,,0.00,WeatherDisplay:10.37,2013-01-01 08:49:00,
2013-01-01 02:54:00,66.2,66.2,29.93,SSE,152,5.7,9.2,100,0.00,CLR,,0.00,WeatherDisplay:10.37,2013-01-01 08:54:00,
2013-01-01 02:59:00,66.6,66.6,29.92,South,175,7.6,9.2,100,0.00,CLR,,0.00,WeatherDisplay:10.37,2013-01-01 08:59:00,
2013-01-01 03:04:00,66.8,66.8,29.92,South,174,7.8,10.4,100,0.00,CLR,,0.00,WeatherDisplay:10.37,2013-01-01 09:04:00,
2013-01-01 03:09:00,66.7,66.7,29.92,South,191,10.3,11.5,100,0.00,CLR,,0.00,WeatherDisplay:10.37,2013-01-01 09:09:00,
2013-01-01 03:14:00,66.4,66.4,29.91,SSE,158,6.6,10.4,100,0.00,CLR,,0.00,WeatherDisplay:10.37,2013-01-01 09:14:00,
2013-01-01 03:19:00,66.5,66.5,29.90,SE,124,6.3,9.2,100,0.00,CLR,,0.00,WeatherDisplay:10.37,2013-01-01 09:19:00,
2013-01-01 03:24:00,66.3,66.3,29.89,SE,138,6.1,8.1,100,0.00,CLR,,0.00,WeatherDisplay:10.37,2013-01-01 09:24:00,
2013-01-01 03:29:00,66.2,66.2,29.90,South,178,7.0,8.6,100,0.00,CLR,,0.00,WeatherDisplay:10.37,2013-01-01 09:29:00,
2013-01-01 03:34:00,65.9,65.9,29.90,South,171,6.8,9.2,100,0.00,CLR,,0.00,WeatherDisplay:10.37,2013-01-01 09:34:00,
2013-01-01 03:39:00,65.4,65.4,29.89,SSE,154,6.1,9.7,100,0.01,RA,,0.01,WeatherDisplay:10.37,2013-01-01 09:39:00,
2013-01-01 03:44:00,65.2,65.2,29.91,South,188,8.4,10.4,100,0.01,RA,,0.01,WeatherDisplay:10.37,2013-01-01 09:44:00,
2013-01-01 03:49:00,65.0,65.0,29.91,South,178,6.4,10.4,100,0.01,RA,,0.01,WeatherDisplay:10.37,2013-01-01 09:49:00,
2013-01-01 03:54:00,65.2,65.2,29.90,South,176,7.7,11.0,100,0.01,RA,,0.01,WeatherDisplay:10.37,2013-01-01 09:54:00,
2013-01-01 03:59:00,65.5,65.5,29.88,South,174,8.2,11.5,100,0.01,CLR,,0.01,WeatherDisplay:10.37,2013-01-01 09:59:00,
2013-01-01 04:04:00,65.7,65.7,29.89,SSE,161,8.1,11.5,100,0.01,CLR,,0.01,WeatherDisplay:10.37,2013-01-01 10:04:00,
2013-01-01 04:09:00,65.9,65.9,29.89,South,186,8.5,10.6,100,0.01,CLR,,0.01,WeatherDisplay:10.37,2013-01-01 10:09:00,
2013-01-01 04:14:00,66.1,66.1,29.88,South,181,11.0,17.3,100,0.01,CLR,,0.01,WeatherDisplay:10.37,2013-01-01 10:14:00,
2013-01-01 04:19:00,66.2,66.2,29.88,South,178,7.9,13.8,100,0.01,CLR,,0.01,WeatherDisplay:10.37,2013-01-01 10:19:00,
2013-01-01 04:24:00,66.2,66.2,29.88,South,189,8.1,12.7,100,0.01,CLR,,0.01,WeatherDisplay:10.37,2013-01-01 10:24:00,
2013-01-01 04:29:00,66.3,66.3,29.88,South,179,6.7,10.4,100,0.01,CLR,,0.01,WeatherDisplay:10.37,2013-01-01 10:29:00,
2013-01-01 04:34:00,66.6,66.6,29.88,SSW,213,7.8,11.5,100,0.01,CLR,,0.01,WeatherDisplay:10.37,2013-01-01 10:34:00,
2013-01-01 04:39:00,66.4,66.4,29.89,WSW,253,8.4,10.4,100,0.00,CLR,,0.01,WeatherDisplay:10.37,2013-01-01 10:39:00,
2013-01-01 04:44:00,66.0,66.0,29.89,SSW,195,6.6,9.2,100,0.00,CLR,,0.01,WeatherDisplay:10.37,2013-01-01 10:44:00,
2013-01-01 04:49:00,66.1,66.1,29.88,South,176,6.4,9.2,100,0.00,CLR,,0.01,WeatherDisplay:10.37,2013-01-01 10:49:00,
2013-01-01 04:54:00,66.4,66.4,29.88,South,189,7.3,12.7,100,0.00,CLR,,0.01,WeatherDisplay:10.37,2013-01-01 10:54:00,
2013-01-01 04:59:00,66.4,66.4,29.89,South,186,8.8,11.5,100,0.00,CLR,,0.01,WeatherDisplay:10.37,2013-01-01 10:59:00,
2013-01-01 05:04:00,66.6,66.6,29.89,SW,223,8.2,11.5,100,0.00,CLR,,0.01,WeatherDisplay:10.37,2013-01-01 11:04:00,
2013-01-01 05:09:00,66.5,66.5,29.89,SSW,192,7.2,12.7,100,0.00,CLR,,0.01,WeatherDisplay:10.37,2013-01-01 11:09:00,
2013-01-01 05:15:00,66.3,66.3,29.89,SW,223,6.2,9.2,100,0.00,CLR,,0.01,WeatherDisplay:10.37,2013-01-01 11:15:00,
2013-01-01 05:20:00,66.2,66.2,29.89,SSW,206,4.6,7.7,100,0.00,CLR,,0.01,WeatherDisplay:10.37,2013-01-01 11:20:00,
2013-01-01 05:25:00,66.0,66.0,29.90,SW,216,3.6,5.8,100,0.00,CLR,,0.01,WeatherDisplay:10.37,2013-01-01 11:25:00,
2013-01-01 05:30:00,66.0,66.0,29.89,SW,219,4.4,5.8,100,0.00,CLR,,0.01,WeatherDisplay:10.37,2013-01-01 11:30:00,
2013-01-01 05:35:00,66.0,66.0,29.89,WSW,247,5.4,6.9,100,0.00,CLR,,0.01,WeatherDisplay:10.37,2013-01-01 11:35:00,
2013-01-01 05:40:00,66.3,66.3,29.90,West,278,6.5,8.1,100,0.00,CLR,,0.01,WeatherDisplay:10.37,2013-01-01 11:40:00,
2013-01-01 05:45:00,66.9,66.9,29.91,WNW,282,9.8,11.5,100,0.01,RA,,0.02,WeatherDisplay:10.37,2013-01-01 11:45:00,
2013-01-01 05:50:00,67.1,67.1,29.92,West,278,8.0,12.7,100,0.01,RA,,0.02,WeatherDisplay:10.37,2013-01-01 11:50:00,
2013-01-01 05:55:00,67.1,67.1,29.92,West,280,6.7,9.2,100,0.03,RA,,0.04,WeatherDisplay:10.37,2013-01-01 11:55:00,
2013-01-01 06:00:00,67.0,67.0,29.92,WNW,302,7.9,10.4,100,0.03,RA,,0.04,WeatherDisplay:10.37,2013-01-01 12:00:00,
2013-01-01 06:05:00,67.2,67.2,29.92,West,277,7.0,9.8,100,0.03,RA,,0.04,WeatherDisplay:10.37,2013-01-01 12:05:00,
2013-01-01 06:10:00,67.3,67.3,29.92,WNW,291,7.3,9.2,100,0.03,RA,,0.04,WeatherDisplay:10.37,2013-01-01 12:10:00,
2013-01-01 06:15:00,67.5,67.5,29.92,West,277,6.2,11.5,100,0.03,CLR,,0.04,WeatherDisplay:10.37,2013-01-01 12:15:00,
2013-01-01 06:20:00,67.7,67.7,29.93,West,278,6.8,10.4,100,0.03,CLR,,0.04,WeatherDisplay:10.37,2013-01-01 12:20:00,
2013-01-01 06:25:00,67.8,67.8,29.93,West,274,6.6,11.5,100,0.03,CLR,,0.04,WeatherDisplay:10.37,2013-01-01 12:25:00,
2013-01-01 06:30:00,67.9,67.9,29.93,WNW,302,6.3,8.1,100,0.03,CLR,,0.04,WeatherDisplay:10.37,2013-01-01 12:30:00,
2013-01-01 06:35:00,67.9,67.9,29.93,West,274,5.5,6.9,100,0.03,CLR,,0.04,WeatherDisplay:10.37,2013-01-01 12:35:00,
2013-01-01 06:40:00,67.9,67.9,29.94,NW,304,5.7,8.1,100,0.03,CLR,,0.04,WeatherDisplay:10.37,2013-01-01 12:40:00,
2013-01-01 06:45:00,68.0,68.0,29.94,WNW,301,4.3,5.8,100,0.02,CLR,,0.04,WeatherDisplay:10.37,2013-01-01 12:45:00,
2013-01-01 06:50:00,67.9,67.9,29.94,WNW,299,4.2,6.9,100,0.02,CLR,,0.04,WeatherDisplay:10.37,2013-01-01 12:50:00,
2013-01-01 06:55:00,68.0,68.0,29.94,WNW,299,6.3,8.1,100,0.00,CLR,,0.04,WeatherDisplay:10.37,2013-01-01 12:55:00,
2013-01-01 07:00:00,67.9,67.9,29.94,West,278,4.4,5.8,100,0.00,CLR,,0.04,WeatherDisplay:10.37,2013-01-01 13:00:00,
2013-01-01 07:05:00,67.9,67.9,29.94,West,277,4.4,6.9,100,0.01,RA,,0.05,WeatherDisplay:10.37,2013-01-01 13:05:00,
2013-01-01 07:11:00,67.8,67.8,29.95,NNW,330,5.5,6.9,100,0.01,RA,,0.05,WeatherDisplay:10.37,2013-01-01 13:11:00,
2013-01-01 07:16:00,67.8,67.8,29.95,NW,315,5.1,8.1,100,0.01,RA,,0.05,WeatherDisplay:10.37,2013-01-01 13:16:00,
2013-01-01 07:21:00,67.8,67.8,29.95,WNW,302,4.7,6.9,100,0.01,RA,,0.05,WeatherDisplay:10.37,2013-01-01 13:21:00,
2013-01-01 07:26:00,67.7,67.7,29.95,WNW,298,4.5,5.8,100,0.01,CLR,,0.05,WeatherDisplay:10.37,2013-01-01 13:26:00,
2013-01-01 07:31:00,67.8,67.8,29.95,NNW,328,3.4,4.6,100,0.01,CLR,,0.05,WeatherDisplay:10.37,2013-01-01 13:31:00,
2013-01-01 07:36:00,67.7,67.7,29.96,NW,320,3.0,4.6,100,0.01,CLR,,0.05,WeatherDisplay:10.37,2013-01-01 13:36:00,
2013-01-01 07:41:00,67.7,67.7,29.97,NW,309,4.4,5.8,100,0.01,CLR,,0.05,WeatherDisplay:10.37,2013-01-01 13:41:00,
2013-01-01 07:46:00,67.6,67.6,29.97,NW,308,3.7,5.7,100,0.01,CLR,,0.05,WeatherDisplay:10.37,2013-01-01 13:46:00,
2013-01-01 07:51:00,67.4,67.4,29.98,NW,322,4.8,6.9,100,0.01,CLR,,0.05,WeatherDisplay:10.37,2013-01-01 13:51:00,
2013-01-01 07:56:00,67.6,67.6,29.97,WNW,301,5.6,6.9,100,0.01,CLR,,0.05,WeatherDisplay:10.37,2013-01-01 13:56:00,
2013-01-01 08:01:00,67.5,67.5,29.97,NW,320,5.5,6.9,100,0.01,CLR,,0.05,WeatherDisplay:10.37,2013-01-01 14:01:00,
2013-01-01 08:06:00,67.5,67.5,29.97,NNW,344,5.7,9.2,100,0.00,CLR,,0.05,WeatherDisplay:10.37,2013-01-01 14:06:00,
2013-01-01 08:11:00,67.5,67.5,29.97,NW,316,6.7,9.2,100,0.01,RA,,0.06,WeatherDisplay:10.37,2013-01-01 14:11:00,
2013-01-01 08:16:00,67.5,67.5,29.98,North,357,4.4,6.9,100,0.01,RA,,0.06,WeatherDisplay:10.37,2013-01-01 14:16:00,
2013-01-01 08:21:00,67.5,67.5,29.98,NW,318,5.2,6.9,100,0.01,RA,,0.06,WeatherDisplay:10.37,2013-01-01 14:21:00,
2013-01-01 08:26:00,67.5,67.5,29.99,WNW,302,6.2,8.1,100,0.01,RA,,0.06,WeatherDisplay:10.37,2013-01-01 14:26:00,
2013-01-01 08:31:00,67.5,67.5,29.99,NW,325,6.0,9.2,100,0.01,,,0.06,WeatherDisplay:10.37,2013-01-01 14:31:00,
2013-01-01 08:36:00,67.5,67.5,29.99,NW,323,9.2,11.5,100,0.01,CLR,,0.06,WeatherDisplay:10.37,2013-01-01 14:36:00,
2013-01-01 08:41:00,66.5,66.5,30.00,NW,325,15.1,21.9,100,0.01,CLR,,0.06,WeatherDisplay:10.37,2013-01-01 14:41:00,
2013-01-01 08:46:00,65.0,65.0,30.01,North,1,12.5,21.9,100,0.01,CLR,,0.06,WeatherDisplay:10.37,2013-01-01 14:46:00,
2013-01-01 08:51:00,64.1,64.1,30.01,North,353,14.2,20.7,100,0.01,CLR,,0.06,WeatherDisplay:10.37,2013-01-01 14:51:00,
2013-01-01 08:56:00,63.4,63.4,30.02,NNW,347,13.2,17.3,100,0.01,CLR,,0.06,WeatherDisplay:10.37,2013-01-01 14:56:00,
2013-01-01 09:01:00,62.5,62.5,30.03,North,1,12.6,19.6,100,0.01,CLR,,0.06,WeatherDisplay:10.37,2013-01-01 15:01:00,
2013-01-01 09:06:00,61.9,61.9,30.03,North,353,16.0,19.6,100,0.01,CLR,,0.06,WeatherDisplay:10.37,2013-01-01 15:06:00,
2013-01-01 09:11:00,60.9,60.9,30.04,NNW,344,13.2,21.9,100,0.00,CLR,,0.06,WeatherDisplay:10.37,2013-01-01 15:11:00,
2013-01-01 09:16:00,59.9,59.9,30.04,NNW,335,16.5,24.2,100,0.00,,,0.06,WeatherDisplay:10.37,2013-01-01 15:16:00,
2013-01-01 09:21:00,59.4,59.4,30.05,North,354,14.3,24.2,100,0.00,,,0.06,WeatherDisplay:10.37,2013-01-01 15:21:00,
2013-01-01 09:26:00,59.3,59.3,30.05,NNW,336,19.5,31.1,100,0.00,,,0.06,WeatherDisplay:10.37,2013-01-01 15:26:00,
2013-01-01 09:31:00,59.1,59.1,30.06,North,360,11.8,19.6,100,0.00,,,0.06,WeatherDisplay:10.37,2013-01-01 15:31:00,
2013-01-01 09:36:00,59.0,59.0,30.06,North,353,10.0,19.6,100,0.00,,,0.06,WeatherDisplay:10.37,2013-01-01 15:36:00,
2013-01-01 09:41:00,58.6,58.6,30.07,NW,322,16.2,23.0,100,0.01,RA,,0.07,WeatherDisplay:10.37,2013-01-01 15:41:00,
2013-01-01 09:46:00,58.3,58.3,30.07,NNW,342,8.7,16.3,100,0.01,RA,,0.07,WeatherDisplay:10.37,2013-01-01 15:46:00,
2013-01-01 09:51:00,58.1,58.1,30.07,NW,325,14.9,20.7,100,0.01,RA,,0.07,WeatherDisplay:10.37,2013-01-01 15:51:00,
2013-01-01 09:56:00,58.0,58.0,30.07,North,6,10.2,13.8,100,0.01,RA,,0.07,WeatherDisplay:10.37,2013-01-01 15:56:00,
2013-01-01 10:01:00,57.7,57.7,30.07,NNW,346,14.9,26.5,100,0.01,,,0.07,WeatherDisplay:10.37,2013-01-01 16:01:00,
2013-01-01 10:06:00,57.7,57.7,30.07,North,350,10.5,14.4,100,0.01,,,0.07,WeatherDisplay:10.37,2013-01-01 16:06:00,
2013-01-01 10:11:00,57.6,57.6,30.07,NNE,13,11.5,16.1,100,0.01,,,0.07,WeatherDisplay:10.37,2013-01-01 16:11:00,
2013-01-01 10:16:00,57.6,57.6,30.07,NNE,21,10.2,23.0,100,0.01,CLR,,0.07,WeatherDisplay:10.37,2013-01-01 16:16:00,
2013-01-01 10:21:00,57.7,57.7,30.07,NNE,23,11.4,18.4,100,0.01,CLR,,0.07,WeatherDisplay:10.37,2013-01-01 16:21:00,
2013-01-01 10:26:00,57.5,57.5,30.07,NNW,332,13.4,21.9,100,0.01,CLR,,0.07,WeatherDisplay:10.37,2013-01-01 16:26:00,
2013-01-01 10:31:00,57.5,57.5,30.08,NNE,24,10.9,15.0,100,0.01,CLR,,0.07,WeatherDisplay:10.37,2013-01-01 16:31:00,
2013-01-01 10:36:00,57.4,57.4,30.08,NNW,340,14.1,20.9,100,0.01,,,0.07,WeatherDisplay:10.37,2013-01-01 16:36:00,
2013-01-01 10:41:00,57.2,57.2,30.08,NNW,337,12.6,20.7,100,0.00,,,0.07,WeatherDisplay:10.37,2013-01-01 16:41:00,
2013-01-01 10:46:00,57.1,57.1,30.08,North,1,9.1,19.6,100,0.00,,,0.07,WeatherDisplay:10.37,2013-01-01 16:46:00,
2013-01-01 10:51:00,57.2,57.2,30.08,North,6,15.4,21.1,100,0.00,CLR,,0.07,WeatherDisplay:10.37,2013-01-01 16:51:00,
2013-01-01 10:56:00,57.2,57.2,30.08,NW,326,10.4,15.0,100,0.00,CLR,,0.07,WeatherDisplay:10.37,2013-01-01 16:56:00,
2013-01-01 11:01:00,57.2,57.2,30.08,NE,38,10.1,15.0,100,0.00,CLR,,0.07,WeatherDisplay:10.37,2013-01-01 17:01:00,
2013-01-01 11:06:00,57.3,57.3,30.08,NNW,347,16.7,23.0,100,0.00,CLR,,0.07,WeatherDisplay:10.37,2013-01-01 17:06:00,
2013-01-01 11:11:00,57.2,57.2,30.08,NNE,14,11.1,17.3,100,0.00,,,0.07,WeatherDisplay:10.37,2013-01-01 17:11:00,
2013-01-01 11:16:00,57.1,57.1,30.08,NNW,347,12.3,17.0,100,0.00,,,0.07,WeatherDisplay:10.37,2013-01-01 17:16:00,
2013-01-01 11:21:00,57.1,57.1,30.08,North,349,12.8,20.8,100,0.00,,,0.07,WeatherDisplay:10.37,2013-01-01 17:21:00,
2013-01-01 11:26:00,57.1,57.1,30.08,North,349,11.1,15.7,100,0.00,CLR,,0.07,WeatherDisplay:10.37,2013-01-01 17:26:00,
2013-01-01 11:31:00,57.2,57.2,30.08,NNE,27,12.2,18.4,100,0.00,CLR,,0.07,WeatherDisplay:10.37,2013-01-01 17:31:00,
2013-01-01 11:36:00,57.3,57.3,30.08,NNE,24,8.3,15.0,100,0.00,CLR,,0.07,WeatherDisplay:10.37,2013-01-01 17:36:00,
2013-01-01 11:41:00,57.3,57.3,30.08,North,354,9.3,21.9,100,0.00,CLR,,0.07,WeatherDisplay:10.37,2013-01-01 17:41:00,
2013-01-01 11:46:00,57.5,57.5,30.08,NNE,28,9.5,13.8,100,0.00,CLR,,0.07,WeatherDisplay:10.37,2013-01-01 17:46:00,
2013-01-01 11:51:00,57.6,57.6,30.07,North,3,12.4,23.0,100,0.00,CLR,,0.07,WeatherDisplay:10.37,2013-01-01 17:51:00,
2013-01-01 11:56:00,57.7,57.7,30.08,North,349,14.1,23.4,100,0.00,CLR,,0.07,WeatherDisplay:10.37,2013-01-01 17:56:00,
2013-01-01 12:01:00,57.8,57.5,30.08,NE,37,11.8,18.5,99,0.00,CLR,,0.07,WeatherDisplay:10.37,2013-01-01 18:01:00,
2013-01-01 12:06:00,57.9,57.6,30.08,North,352,13.1,20.7,99,0.00,CLR,,0.07,WeatherDisplay:10.37,2013-01-01 18:06:00,
2013-01-01 12:11:00,58.0,57.7,30.08,NW,316,13.1,20.7,99,0.00,CLR,,0.07,WeatherDisplay:10.37,2013-01-01 18:11:00,
2013-01-01 12:16:00,58.0,57.4,30.08,NNW,339,11.5,16.1,98,0.00,CLR,,0.07,WeatherDisplay:10.37,2013-01-01 18:16:00,
2013-01-01 12:21:00,58.1,57.5,30.08,North,6,12.3,16.1,98,0.00,CLR,,0.07,WeatherDisplay:10.37,2013-01-01 18:21:00,
2013-01-01 12:26:00,58.0,57.4,30.08,North,359,13.5,18.4,98,0.00,CLR,,0.07,WeatherDisplay:10.37,2013-01-01 18:26:00,
2013-01-01 12:31:00,58.0,57.4,30.08,NNW,346,11.5,17.3,98,0.00,CLR,,0.07,WeatherDisplay:10.37,2013-01-01 18:31:00,
2013-01-01 12:36:00,57.8,57.0,30.07,NNW,344,10.8,16.1,97,0.00,CLR,,0.07,WeatherDisplay:10.37,2013-01-01 18:36:00,
2013-01-01 12:41:00,57.8,57.0,30.08,North,353,11.0,19.6,97,0.00,CLR,,0.07,WeatherDisplay:10.37,2013-01-01 18:41:00,
2013-01-01 12:46:00,57.7,56.9,30.08,North,10,9.6,12.7,97,0.00,CLR,,0.07,WeatherDisplay:10.37,2013-01-01 18:46:00,
2013-01-01 12:51:00,57.4,56.3,30.08,NNW,344,13.5,19.6,96,0.00,CLR,,0.07,WeatherDisplay:10.37,2013-01-01 18:51:00,
2013-01-01 12:56:00,57.2,56.1,30.08,ENE,65,9.7,17.3,96,0.00,CLR,,0.07,WeatherDisplay:10.37,2013-01-01 18:56:00,
2013-01-01 13:01:00,57.1,56.0,30.08,NNE,27,8.0,10.4,96,0.00,CLR,,0.07,WeatherDisplay:10.37,2013-01-01 19:01:00,
2013-01-01 13:06:00,57.1,56.0,30.08,North,360,10.6,13.8,96,0.00,CLR,,0.07,WeatherDisplay:10.37,2013-01-01 19:06:00,
2013-01-01 13:11:00,57.1,56.0,30.08,North,353,10.0,16.8,96,0.00,CLR,,0.07,WeatherDisplay:10.37,2013-01-01 19:11:00,
2013-01-01 13:16:00,57.1,56.0,30.08,NNE,18,7.4,16.1,96,0.00,CLR,,0.07,WeatherDisplay:10.37,2013-01-01 19:16:00,
2013-01-01 13:21:00,57.2,56.1,30.07,NNW,328,9.4,11.9,96,0.00,CLR,,0.07,WeatherDisplay:10.37,2013-01-01 19:21:00,
2013-01-01 13:26:00,57.4,56.3,30.08,NNW,344,7.4,11.5,96,0.00,CLR,,0.07,WeatherDisplay:10.37,2013-01-01 19:26:00,
2013-01-01 13:31:00,57.5,56.4,30.08,NNW,346,8.3,14.9,96,0.00,CLR,,0.07,WeatherDisplay:10.37,2013-01-01 19:31:00,
2013-01-01 13:36:00,57.4,56.3,30.08,North,7,10.2,15.0,96,0.00,CLR,,0.07,WeatherDisplay:10.37,2013-01-01 19:36:00,
2013-01-01 13:41:00,57.4,56.3,30.08,NNW,340,9.2,15.0,96,0.00,CLR,,0.07,WeatherDisplay:10.37,2013-01-01 19:41:00,
2013-01-01 13:46:00,57.4,56.3,30.08,North,357,10.9,13.8,96,0.00,CLR,,0.07,WeatherDisplay:10.37,2013-01-01 19:46:00,
2013-01-01 13:51:00,57.4,56.6,30.08,NW,316,9.9,21.4,97,0.00,CLR,,0.07,WeatherDisplay:10.37,2013-01-01 19:51:00,
2013-01-01 13:56:00,57.1,56.0,30.08,NNW,346,9.2,17.3,96,0.00,CLR,,0.07,WeatherDisplay:10.37,2013-01-01 19:56:00,
2013-01-01 14:01:00,57.0,55.9,30.08,NNW,343,11.5,17.3,96,0.00,CLR,,0.07,WeatherDisplay:10.37,2013-01-01 20:01:00,
2013-01-01 14:06:00,57.0,55.9,30.07,NNW,340,13.6,18.4,96,0.00,CLR,,0.07,WeatherDisplay:10.37,2013-01-01 20:06:00,
2013-01-01 14:11:00,57.1,56.0,30.07,NW,322,10.0,16.1,96,0.00,CLR,,0.07,WeatherDisplay:10.37,2013-01-01 20:11:00,
2013-01-01 14:16:00,57.3,56.2,30.07,NNW,347,12.7,18.4,96,0.00,CLR,,0.07,WeatherDisplay:10.37,2013-01-01 20:16:00,
2013-01-01 14:21:00,57.5,56.4,30.07,North,354,9.9,13.2,96,0.00,CLR,,0.07,WeatherDisplay:10.37,2013-01-01 20:21:00,
2013-01-01 14:26:00,57.4,56.0,30.07,NNW,332,12.5,19.6,95,0.00,CLR,,0.07,WeatherDisplay:10.37,2013-01-01 20:26:00,
2013-01-01 14:31:00,57.6,56.2,30.07,North,349,12.7,19.6,95,0.00,CLR,,0.07,WeatherDisplay:10.37,2013-01-01 20:31:00,
2013-01-01 14:36:00,57.8,56.1,30.08,NNW,340,14.5,18.4,94,0.00,CLR,,0.07,WeatherDisplay:10.37,2013-01-01 20:36:00,
2013-01-01 14:41:00,57.9,56.2,30.08,North,6,9.5,17.3,94,0.00,CLR,,0.07,WeatherDisplay:10.37,2013-01-01 20:41:00,
2013-01-01 14:46:00,58.0,56.0,30.08,NNW,332,12.3,20.7,93,0.00,CLR,,0.07,WeatherDisplay:10.37,2013-01-01 20:46:00,
2013-01-01 14:51:00,57.9,55.6,30.08,NNW,340,11.5,17.3,92,0.00,CLR,,0.07,WeatherDisplay:10.37,2013-01-01 20:51:00,
2013-01-01 14:56:00,57.9,55.6,30.08,NNW,330,9.5,16.1,92,0.00,CLR,,0.07,WeatherDisplay:10.37,2013-01-01 20:56:00,
2013-01-01 15:01:00,57.8,55.5,30.08,NW,322,13.7,19.6,92,0.00,CLR,,0.07,WeatherDisplay:10.37,2013-01-01 21:01:00,
2013-01-01 15:06:00,57.7,55.7,30.09,NW,305,10.6,15.0,93,0.00,CLR,,0.07,WeatherDisplay:10.37,2013-01-01 21:06:00,
2013-01-01 15:11:00,57.5,55.2,30.08,NNW,332,9.1,16.1,92,0.00,CLR,,0.07,WeatherDisplay:10.37,2013-01-01 21:11:00,
2013-01-01 15:16:00,57.4,55.1,30.08,NNW,337,10.4,15.0,92,0.00,CLR,,0.07,WeatherDisplay:10.37,2013-01-01 21:16:00,
2013-01-01 15:21:00,57.4,55.1,30.09,NW,326,9.5,24.2,92,0.00,CLR,,0.07,WeatherDisplay:10.37,2013-01-01 21:21:00,
2013-01-01 15:26:00,57.3,54.7,30.10,NNW,337,12.2,19.6,91,0.00,CLR,,0.07,WeatherDisplay:10.37,2013-01-01 21:26:00,
2013-01-01 15:31:00,57.2,54.6,30.10,North,353,10.4,17.2,91,0.00,CLR,,0.07,WeatherDisplay:10.37,2013-01-01 21:31:00,
2013-01-01 15:36:00,57.2,54.6,30.10,NNW,339,11.7,19.6,91,0.00,CLR,,0.07,WeatherDisplay:10.37,2013-01-01 21:36:00,
2013-01-01 15:41:00,57.2,54.6,30.10,NNW,330,9.5,17.3,91,0.00,CLR,,0.07,WeatherDisplay:10.37,2013-01-01 21:41:00,
2013-01-01 15:46:00,57.2,54.3,30.10,North,350,12.2,18.4,90,0.00,CLR,,0.07,WeatherDisplay:10.37,2013-01-01 21:46:00,
2013-01-01 15:51:00,57.1,53.9,30.10,NNW,339,11.2,17.5,89,0.00,CLR,,0.07,WeatherDisplay:10.37,2013-01-01 21:51:00,
2013-01-01 15:56:00,57.1,54.2,30.09,North,352,9.1,17.3,90,0.00,CLR,,0.07,WeatherDisplay:10.37,2013-01-01 21:56:00,
2013-01-01 16:01:00,57.1,53.9,30.09,NNW,342,12.4,17.3,89,0.00,CLR,,0.07,WeatherDisplay:10.37,2013-01-01 22:01:00,
2013-01-01 16:06:00,57.0,53.8,30.10,North,349,10.3,13.8,89,0.00,CLR,,0.07,WeatherDisplay:10.37,2013-01-01 22:06:00,
2013-01-01 16:11:00,56.9,53.4,30.09,North,350,8.3,16.1,88,0.00,CLR,,0.07,WeatherDisplay:10.37,2013-01-01 22:11:00,
2013-01-01 16:16:00,56.9,53.1,30.09,North,0,10.7,17.3,87,0.00,CLR,,0.07,WeatherDisplay:10.37,2013-01-01 22:16:00,
2013-01-01 16:21:00,56.9,53.1,30.09,North,360,11.6,18.4,87,0.00,CLR,,0.07,WeatherDisplay:10.37,2013-01-01 22:21:00,
2013-01-01 16:26:00,56.8,53.0,30.09,North,0,10.7,16.1,87,0.00,CLR,,0.07,WeatherDisplay:10.37,2013-01-01 22:26:00,
2013-01-01 16:31:00,56.9,52.8,30.10,NNW,339,10.7,15.0,86,0.00,CLR,,0.07,WeatherDisplay:10.37,2013-01-01 22:31:00,
2013-01-01 16:36:00,56.8,52.7,30.11,NNW,328,10.3,14.4,86,0.00,CLR,,0.07,WeatherDisplay:10.37,2013-01-01 22:36:00,
2013-01-01 16:41:00,56.9,52.8,30.11,NW,315,8.7,13.8,86,0.00,CLR,,0.07,WeatherDisplay:10.37,2013-01-01 22:41:00,
2013-01-01 16:46:00,56.9,52.8,30.11,North,359,9.5,13.8,86,0.00,CLR,,0.07,WeatherDisplay:10.37,2013-01-01 22:46:00,
2013-01-01 16:51:00,57.0,52.9,30.12,North,359,8.3,11.5,86,0.00,CLR,,0.07,WeatherDisplay:10.37,2013-01-01 22:51:00,
2013-01-01 16:56:00,56.9,52.8,30.11,North,8,9.8,16.1,86,0.00,CLR,,0.07,WeatherDisplay:10.37,2013-01-01 22:56:00,
2013-01-01 17:01:00,56.9,52.8,30.11,NW,325,9.4,17.3,86,0.00,CLR,,0.07,WeatherDisplay:10.37,2013-01-01 23:01:00,
2013-01-01 17:06:00,56.9,52.4,30.12,NNW,330,6.0,12.7,85,0.00,CLR,,0.07,WeatherDisplay:10.37,2013-01-01 23:06:00,
2013-01-01 17:11:00,56.9,52.4,30.12,NNW,337,6.9,12.7,85,0.00,CLR,,0.07,WeatherDisplay:10.37,2013-01-01 23:11:00,
2013-01-01 17:16:00,56.9,52.4,30.11,North,360,9.1,12.7,85,0.00,CLR,,0.07,WeatherDisplay:10.37,2013-01-01 23:16:00,
2013-01-01 17:21:00,56.8,52.3,30.11,NW,311,9.0,18.4,85,0.00,CLR,,0.07,WeatherDisplay:10.37,2013-01-01 23:21:00,
2013-01-01 17:26:00,56.8,52.3,30.12,North,349,9.2,13.8,85,0.00,CLR,,0.07,WeatherDisplay:10.37,2013-01-01 23:26:00,
2013-01-01 17:31:00,56.7,52.2,30.12,North,353,9.6,18.4,85,0.00,CLR,,0.07,WeatherDisplay:10.37,2013-01-01 23:31:00,
2013-01-01 17:36:00,56.7,52.2,30.11,NNW,344,8.5,12.7,85,0.00,CLR,,0.07,WeatherDisplay:10.37,2013-01-01 23:36:00,
2013-01-01 17:41:00,56.7,52.2,30.11,NNW,339,8.5,13.8,85,0.00,CLR,,0.07,WeatherDisplay:10.37,2013-01-01 23:41:00,
2013-01-01 17:46:00,56.7,52.2,30.11,North,3,8.5,12.7,85,0.00,CLR,,0.07,WeatherDisplay:10.37,2013-01-01 23:46:00,
2013-01-01 17:51:00,56.6,52.1,30.11,North,0,9.3,11.9,85,0.00,CLR,,0.07,WeatherDisplay:10.37,2013-01-01 23:51:00,
2013-01-01 17:56:00,56.5,52.0,30.12,North,349,9.7,15.0,85,0.00,CLR,,0.07,WeatherDisplay:10.37,2013-01-01 23:56:00,
2013-01-01 18:01:00,56.5,52.4,30.12,North,350,7.9,15.0,86,0.00,CLR,,0.07,WeatherDisplay:10.37,2013-01-02 00:01:00,
2013-01-01 18:06:00,56.3,52.2,30.13,North,0,7.7,16.1,86,0.00,CLR,,0.07,WeatherDisplay:10.37,2013-01-02 00:06:00,
2013-01-01 18:11:00,56.4,52.3,30.13,NNW,330,7.4,11.5,86,0.00,CLR,,0.07,WeatherDisplay:10.37,2013-01-02 00:11:00,
2013-01-01 18:16:00,56.3,52.2,30.13,NNW,340,8.1,12.7,86,0.00,CLR,,0.07,WeatherDisplay:10.37,2013-01-02 00:16:00,
2013-01-01 18:21:00,56.3,52.2,30.13,NNW,344,10.2,13.8,86,0.00,CLR,,0.07,WeatherDisplay:10.37,2013-01-02 00:21:00,
2013-01-01 18:26:00,56.2,52.1,30.13,NNW,337,9.1,12.7,86,0.00,CLR,,0.07,WeatherDisplay:10.37,2013-01-02 00:26:00,
2013-01-01 18:31:00,56.3,52.2,30.14,NNW,332,8.9,13.8,86,0.00,CLR,,0.07,WeatherDisplay:10.37,2013-01-02 00:31:00,
2013-01-01 18:36:00,56.2,52.1,30.14,North,356,9.8,12.7,86,0.00,CLR,,0.07,WeatherDisplay:10.37,2013-01-02 00:36:00,
2013-01-01 18:41:00,56.2,52.1,30.14,North,4,7.9,11.5,86,0.00,CLR,,0.07,WeatherDisplay:10.37,2013-01-02 00:41:00,
2013-01-01 18:46:00,56.1,51.7,30.14,NNW,332,10.4,15.0,85,0.00,CLR,,0.07,WeatherDisplay:10.37,2013-01-02 00:46:00,
2013-01-01 18:51:00,56.1,51.3,30.15,NNW,329,11.2,16.1,84,0.00,CLR,,0.07,WeatherDisplay:10.37,2013-01-02 00:51:00,
2013-01-01 18:56:00,56.0,51.2,30.16,North,359,12.1,12.7,84,0.00,CLR,,0.07,WeatherDisplay:10.37,2013-01-02 00:56:00,
2013-01-01 19:01:00,56.1,51.7,30.16,NNW,347,9.9,14.5,85,0.00,CLR,,0.07,WeatherDisplay:10.37,2013-01-02 01:01:00,
2013-01-01 19:06:00,56.0,51.6,30.14,NNW,344,8.2,11.5,85,0.00,CLR,,0.07,WeatherDisplay:10.37,2013-01-02 01:06:00,
2013-01-01 19:11:00,56.0,51.9,30.15,North,349,8.9,13.8,86,0.00,CLR,,0.07,WeatherDisplay:10.37,2013-01-02 01:11:00,
2013-01-01 19:16:00,55.9,51.8,30.15,North,359,10.8,13.8,86,0.00,CLR,,0.07,WeatherDisplay:10.37,2013-01-02 01:16:00,
2013-01-01 19:21:00,55.9,51.8,30.16,NE,34,10.1,18.4,86,0.00,CLR,,0.07,WeatherDisplay:10.37,2013-01-02 01:21:00,
2013-01-01 19:26:00,55.8,51.7,30.15,North,4,8.6,11.8,86,0.00,CLR,,0.07,WeatherDisplay:10.37,2013-01-02 01:26:00,
2013-01-01 19:31:00,55.8,51.4,30.15,North,354,9.0,17.3,85,0.00,CLR,,0.07,WeatherDisplay:10.37,2013-01-02 01:31:00,
2013-01-01 19:36:00,55.7,51.3,30.16,North,352,8.7,17.3,85,0.00,CLR,,0.07,WeatherDisplay:10.37,2013-01-02 01:36:00,
2013-01-01 19:41:00,55.5,50.7,30.16,North,11,8.5,16.1,84,0.00,CLR,,0.07,WeatherDisplay:10.37,2013-01-02 01:41:00,
2013-01-01 19:46:00,55.4,50.6,30.16,North,356,8.7,16.1,84,0.00,CLR,,0.07,WeatherDisplay:10.37,2013-01-02 01:46:00,
2013-01-01 19:51:00,55.4,50.6,30.16,NNW,347,11.1,17.3,84,0.00,CLR,,0.07,WeatherDisplay:10.37,2013-01-02 01:51:00,
2013-01-01 19:56:00,55.3,50.5,30.16,NNW,330,8.0,21.9,84,0.00,CLR,,0.07,WeatherDisplay:10.37,2013-01-02 01:56:00,
2013-01-01 20:01:00,55.3,50.5,30.17,NW,313,9.6,11.5,84,0.00,CLR,,0.07,WeatherDisplay:10.37,2013-01-02 02:01:00,
2013-01-01 20:06:00,55.2,50.4,30.17,NNE,31,9.4,15.0,84,0.00,CLR,,0.07,WeatherDisplay:10.37,2013-01-02 02:06:00,
2013-01-01 20:11:00,55.1,50.4,30.17,North,352,11.7,15.0,84,0.00,CLR,,0.07,WeatherDisplay:10.37,2013-01-02 02:11:00,
2013-01-01 20:16:00,55.0,50.3,30.16,North,350,7.8,15.0,84,0.00,CLR,,0.07,WeatherDisplay:10.37,2013-01-02 02:16:00,
2013-01-01 20:21:00,55.0,50.3,30.16,NW,312,10.1,17.3,84,0.00,CLR,,0.07,WeatherDisplay:10.37,2013-01-02 02:21:00,
2013-01-01 20:26:00,54.9,50.2,30.17,North,4,9.9,17.3,84,0.00,CLR,,0.07,WeatherDisplay:10.37,2013-01-02 02:26:00,
2013-01-01 20:32:00,54.9,50.2,30.17,NNW,347,7.1,9.2,84,0.00,CLR,,0.07,WeatherDisplay:10.37,2013-01-02 02:32:00,
2013-01-01 20:37:00,54.7,50.3,30.17,NNW,346,8.9,11.5,85,0.00,CLR,,0.07,WeatherDisplay:10.37,2013-01-02 02:37:00,
2013-01-01 20:42:00,54.7,50.3,30.18,NNW,342,8.6,15.5,85,0.00,CLR,,0.07,WeatherDisplay:10.37,2013-01-02 02:42:00,
2013-01-01 20:47:00,54.7,50.3,30.19,North,6,8.3,11.5,85,0.00,CLR,,0.07,WeatherDisplay:10.37,2013-01-02 02:47:00,
2013-01-01 20:52:00,54.6,50.2,30.19,North,353,11.4,17.3,85,0.00,CLR,,0.07,WeatherDisplay:10.37,2013-01-02 02:52:00,
2013-01-01 20:57:00,54.6,50.2,30.18,NNW,343,11.7,13.8,85,0.00,CLR,,0.07,WeatherDisplay:10.37,2013-01-02 02:57:00,
2013-01-01 21:02:00,54.6,50.2,30.19,NNW,337,6.3,10.4,85,0.00,CLR,,0.07,WeatherDisplay:10.37,2013-01-02 03:02:00,
2013-01-01 21:07:00,54.5,50.4,30.18,North,1,7.7,15.0,86,0.00,CLR,,0.07,WeatherDisplay:10.37,2013-01-02 03:07:00,
2013-01-01 21:12:00,54.3,50.2,30.19,North,354,10.6,18.4,86,0.00,CLR,,0.07,WeatherDisplay:10.37,2013-01-02 03:12:00,
2013-01-01 21:17:00,54.1,50.3,30.19,NW,322,9.7,17.3,87,0.00,CLR,,0.07,WeatherDisplay:10.37,2013-01-02 03:17:00,
2013-01-01 21:22:00,53.8,50.0,30.19,NW,322,12.0,18.4,87,0.00,CLR,,0.07,WeatherDisplay:10.37,2013-01-02 03:22:00,
2013-01-01 21:27:00,53.6,49.8,30.20,North,350,9.2,17.3,87,0.00,CLR,,0.07,WeatherDisplay:10.37,2013-01-02 03:27:00,
2013-01-01 21:32:00,53.4,49.9,30.20,NW,320,13.4,19.6,88,0.00,CLR,,0.07,WeatherDisplay:10.37,2013-01-02 03:32:00,
2013-01-01 21:37:00,53.2,49.4,30.19,North,6,11.5,19.6,87,0.00,CLR,,0.07,WeatherDisplay:10.37,2013-01-02 03:37:00,
2013-01-01 21:42:00,53.0,49.2,30.19,NE,51,8.9,13.8,87,0.00,CLR,,0.07,WeatherDisplay:10.37,2013-01-02 03:42:00,
2013-01-01 21:47:00,52.8,49.0,30.19,NNW,339,12.0,17.3,87,0.00,CLR,,0.07,WeatherDisplay:10.37,2013-01-02 03:47:00,
2013-01-01 21:52:00,52.5,48.7,30.19,NW,320,13.0,19.6,87,0.00,,,0.07,WeatherDisplay:10.37,2013-01-02 03:52:00,
2013-01-01 21:57:00,52.3,48.9,30.19,NW,315,10.8,15.0,88,0.00,,,0.07,WeatherDisplay:10.37,2013-01-02 03:57:00,
2013-01-01 22:02:00,52.1,48.7,30.18,North,354,12.7,20.7,88,0.00,,,0.07,WeatherDisplay:10.37,2013-01-02 04:02:00,
2013-01-01 22:07:00,51.9,48.5,30.18,North,8,11.9,18.4,88,0.00,CLR,,0.07,WeatherDisplay:10.37,2013-01-02 04:07:00,
2013-01-01 22:12:00,51.7,48.3,30.18,North,6,10.9,17.3,88,0.00,CLR,,0.07,WeatherDisplay:10.37,2013-01-02 04:12:00,
2013-01-01 22:17:00,51.7,48.3,30.17,North,360,11.2,17.3,88,0.00,CLR,,0.07,WeatherDisplay:10.37,2013-01-02 04:17:00,
2013-01-01 22:22:00,51.6,48.2,30.17,North,1,11.6,18.4,88,0.00,CLR,,0.07,WeatherDisplay:10.37,2013-01-02 04:22:00,
2013-01-01 22:27:00,51.5,48.4,30.19,WNW,302,8.8,13.9,89,0.00,CLR,,0.07,WeatherDisplay:10.37,2013-01-02 04:27:00,
2013-01-01 22:32:00,51.4,48.3,30.19,NNW,329,9.7,15.0,89,0.00,CLR,,0.07,WeatherDisplay:10.37,2013-01-02 04:32:00,
2013-01-01 22:37:00,51.3,48.2,30.19,North,4,11.6,16.1,89,0.00,CLR,,0.07,WeatherDisplay:10.37,2013-01-02 04:37:00,
2013-01-01 22:42:00,51.2,48.1,30.19,NNE,13,10.2,15.0,89,0.00,CLR,,0.07,WeatherDisplay:10.37,2013-01-02 04:42:00,
2013-01-01 22:47:00,51.1,48.0,30.18,North,349,9.2,19.6,89,0.00,CLR,,0.07,WeatherDisplay:10.37,2013-01-02 04:47:00,
2013-01-01 22:52:00,51.1,48.0,30.18,North,354,10.9,13.8,89,0.00,CLR,,0.07,WeatherDisplay:10.37,2013-01-02 04:52:00,
2013-01-01 22:57:00,50.9,47.8,30.19,NNW,336,10.1,13.9,89,0.00,CLR,,0.07,WeatherDisplay:10.37,2013-01-02 04:57:00,
2013-01-01 23:00:00,50.9,47.8,30.19,NNW,340,11.4,17.3,89,0.00,CLR,,0.07,WeatherDisplay:10.37,2013-01-02 05:00:00,
2013-01-01 23:01:00,50.9,47.8,30.19,NNW,339,10.8,15.0,89,0.00,CLR,,0.07,WeatherDisplay:10.37,2013-01-02 05:01:00,
2013-01-01 23:06:00,50.7,47.6,30.19,NNW,337,9.5,16.1,89,0.00,CLR,,0.07,WeatherDisplay:10.37,2013-01-02 05:06:00,
2013-01-01 23:11:00,50.7,47.6,30.19,North,10,9.9,20.7,89,0.00,CLR,,0.07,WeatherDisplay:10.37,2013-01-02 05:11:00,
2013-01-01 23:15:00,50.6,47.8,30.20,North,356,12.7,12.7,90,0.00,CLR,,0.07,WeatherDisplay:10.37,2013-01-02 05:15:00,
2013-01-01 23:20:00,50.5,47.7,30.19,North,356,9.1,17.3,90,0.00,RA,,0.07,WeatherDisplay:10.37,2013-01-02 05:20:00,
2013-01-01 23:25:00,50.5,47.7,30.19,North,6,10.0,13.8,90,0.00,RA,,0.07,WeatherDisplay:10.37,2013-01-02 05:25:00,
2013-01-01 23:30:00,50.6,47.8,30.19,North,3,10.2,11.5,90,0.00,RA,,0.07,WeatherDisplay:10.37,2013-01-02 05:30:00,
2013-01-01 23:35:00,50.4,47.6,30.19,NNW,333,10.2,12.7,90,0.00,RA,,0.07,WeatherDisplay:10.37,2013-01-02 05:35:00,
2013-01-01 23:40:00,50.4,47.6,30.19,NNW,335,9.4,15.0,90,0.00,CLR,,0.07,WeatherDisplay:10.37,2013-01-02 05:40:00,
2013-01-01 23:45:00,50.5,47.7,30.19,North,353,6.6,10.4,90,0.00,CLR,,0.07,WeatherDisplay:10.37,2013-01-02 05:45:00,
2013-01-01 23:50:00,50.3,47.5,30.18,NNE,14,7.7,11.3,90,0.00,CLR,,0.07,WeatherDisplay:10.37,2013-01-02 05:50:00,
2013-01-01 23:55:00,50.3,47.5,30.18,North,1,9.3,13.8,90,0.00,CLR,,0.07,WeatherDisplay:10.37,2013-01-02 05:55:00,